| time (UTC) | temp F | wind direction | speed MPH | gust MPH | rain 1hr in | rain 24hr in | rain mn in | humidity % | barometer mb |
| 20260504185743 | 74 | 194 | 10.0 | 14.0 | 0.00 | 0.00 | 0.00 | 36 | 1009.4 |
| 20260504185233 | 74 | 249 | 9.0 | 14.0 | 0.00 | 0.00 | 0.00 | 35 | 1009.3 |
| 20260504184722 | 74 | 215 | 6.0 | 21.0 | 0.00 | 0.00 | 0.00 | 35 | 1009.5 |
| 20260504184300 | 74 | 163 | 6.0 | 21.0 | 0.00 | 0.00 | 0.00 | 37 | 1009.5 |
| 20260504183732 | 74 | 235 | 7.0 | 16.0 | 0.00 | 0.00 | 0.00 | 36 | 1009.7 |
| 20260504183241 | 74 | 132 | 5.0 | 18.0 | 0.00 | 0.00 | 0.00 | 37 | 1009.6 |
| 20260504182730 | 74 | 253 | 5.0 | 18.0 | 0.00 | 0.00 | 0.00 | 36 | 1009.8 |
| 20260504182242 | 73 | 225 | 9.0 | 14.0 | 0.00 | 0.00 | 0.00 | 37 | 1009.8 |
| 20260504181739 | 73 | 146 | 5.0 | 14.0 | 0.00 | 0.00 | 0.00 | 36 | 1009.8 |
| 20260504181227 | 73 | 212 | 9.0 | 15.0 | 0.00 | 0.00 | 0.00 | 39 | 1009.9 |
| 20260504180719 | 73 | 198 | 10.0 | 15.0 | 0.00 | 0.00 | 0.00 | 37 | 1009.9 |
| 20260504180234 | 73 | 269 | 6.0 | 12.0 | 0.00 | 0.00 | 0.00 | 39 | 1010.0 |
| 20260504175723 | 73 | 189 | 7.0 | 15.0 | 0.00 | 0.00 | 0.00 | 40 | 1010.1 |
| 20260504175236 | 73 | 156 | 8.0 | 15.0 | 0.00 | 0.00 | 0.00 | 40 | 1010.2 |
| 20260504174724 | 73 | 175 | 9.0 | 18.0 | 0.00 | 0.00 | 0.00 | 39 | 1010.2 |
| 20260504174256 | 73 | 187 | 14.0 | 18.0 | 0.00 | 0.00 | 0.00 | 39 | 1010.3 |
| 20260504173727 | 73 | 139 | 7.0 | 19.0 | 0.00 | 0.00 | 0.00 | 40 | 1010.2 |
| 20260504173238 | 72 | 133 | 5.0 | 19.0 | 0.00 | 0.00 | 0.00 | 39 | 1010.3 |
| 20260504172731 | 72 | 244 | 3.0 | 14.0 | 0.00 | 0.00 | 0.00 | 39 | 1010.4 |
| 20260504172239 | 72 | 204 | 8.0 | 14.0 | 0.00 | 0.00 | 0.00 | 39 | 1010.4 |
| 20260504171736 | 72 | 221 | 7.0 | 14.0 | 0.00 | 0.00 | 0.00 | 40 | 1010.5 |
| 20260504171222 | 71 | 157 | 7.0 | 12.0 | 0.00 | 0.00 | 0.00 | 44 | 1010.5 |
| 20260504170738 | 71 | 315 | 6.0 | 12.0 | 0.00 | 0.00 | 0.00 | 42 | 1010.7 |
| 20260504170231 | 71 | 229 | 3.0 | 12.0 | 0.00 | 0.00 | 0.00 | 41 | 1010.7 |
| 20260504160240 | 69 | 202 | 8.0 | 16.0 | 0.00 | 0.00 | 0.00 | 43 | 1011.8 |
| 20260504150738 | 66 | 250 | 6.0 | 10.0 | 0.00 | 0.00 | 0.00 | 51 | 1012.2 |
| 20260504150227 | 66 | 188 | 7.0 | 11.0 | 0.00 | 0.00 | 0.00 | 54 | 1012.2 |
| 20260504141235 | 62 | 309 | 4.0 | 18.0 | 0.00 | 0.00 | 0.00 | 56 | 1012.3 |
| 20260504140726 | 62 | 223 | 6.0 | 18.0 | 0.00 | 0.00 | 0.00 | 54 | 1012.4 |
| 20260504140243 | 62 | 200 | 8.0 | 13.0 | 0.00 | 0.00 | 0.00 | 53 | 1012.4 |
| 20260504130735 | 59 | 236 | 6.0 | 19.0 | 0.00 | 0.00 | 0.00 | 58 | 1012.9 |
| 20260504130242 | 59 | 201 | 10.0 | 18.0 | 0.00 | 0.00 | 0.00 | 58 | 1013.1 |
| 20260504120232 | 55 | 203 | 6.0 | 13.0 | 0.00 | 0.00 | 0.00 | 70 | 1013.2 |
| 20260504110220 | 50 | 229 | 6.0 | 16.0 | 0.00 | 0.00 | 0.00 | 74 | 1013.6 |
| 20260504100225 | 48 | 185 | 6.0 | 11.0 | 0.00 | 0.00 | 0.00 | 71 | 1013.5 |
| 20260504081730 | 42 | 181 | 0.0 | 0.0 | 0.00 | 0.00 | 0.00 | 77 | 1013.3 |
| 20260504081222 | 42 | 181 | 0.0 | 0.0 | 0.00 | 0.00 | 0.00 | 76 | 1013.2 |
| 20260504080718 | 43 | 181 | 0.0 | 0.0 | 0.00 | 0.00 | 0.00 | 76 | 1013.3 |
| 20260504080236 | 43 | 181 | 0.0 | 0.0 | 0.00 | 0.00 | 0.00 | 75 | 1013.3 |
| 20260504070240 | 44 | 181 | 0.0 | 0.0 | 0.00 | 0.00 | 0.00 | 72 | 1013.0 |
| 20260504060242 | 45 | 181 | 0.0 | 0.0 | 0.00 | 0.00 | 0.00 | 69 | 1013.1 |
| 20260504050728 | 48 | 181 | 0.0 | 2.0 | 0.00 | 0.00 | 0.00 | 64 | 1012.8 |
| 20260504050244 | 48 | 181 | 0.0 | 2.0 | 0.00 | 0.00 | 0.00 | 63 | 1012.9 |
| 20260504045734 | 49 | 181 | 0.0 | 4.0 | 0.00 | 0.00 | 0.00 | 63 | 1012.9 |
| 20260504045223 | 49 | 181 | 1.0 | 4.0 | 0.00 | 0.00 | 0.00 | 62 | 1012.9 |
| 20260504044738 | 49 | 275 | 0.0 | 3.0 | 0.00 | 0.00 | 0.00 | 62 | 1012.8 |
| 20260504044233 | 49 | 171 | 0.0 | 2.0 | 0.00 | 0.00 | 0.00 | 60 | 1012.8 |
| 20260504043721 | 50 | 171 | 0.0 | 3.0 | 0.00 | 0.00 | 0.00 | 60 | 1012.7 |
| 20260504043236 | 50 | 171 | 0.0 | 4.0 | 0.00 | 0.00 | 0.00 | 59 | 1012.6 |
| 20260504042726 | 50 | 171 | 0.0 | 4.0 | 0.00 | 0.00 | 0.00 | 59 | 1012.6 |
| 20260504042219 | 50 | 172 | 0.0 | 5.0 | 0.00 | 0.00 | 0.00 | 58 | 1012.6 |
| 20260504041736 | 50 | 173 | 3.0 | 5.0 | 0.00 | 0.00 | 0.00 | 57 | 1012.5 |
| 20260504041221 | 51 | 188 | 0.0 | 2.0 | 0.00 | 0.00 | 0.00 | 57 | 1012.5 |
| 20260504040757 | 51 | 188 | 1.0 | 2.0 | 0.00 | 0.00 | 0.00 | 56 | 1012.4 |
| 20260504040227 | 51 | 188 | 0.0 | 2.0 | 0.00 | 0.00 | 0.00 | 55 | 1012.4 |
| 20260504035739 | 51 | 188 | 0.0 | 4.0 | 0.00 | 0.00 | 0.00 | 54 | 1012.3 |
| 20260504035230 | 52 | 188 | 0.0 | 4.0 | 0.00 | 0.00 | 0.00 | 54 | 1012.3 |
| 20260504034722 | 52 | 218 | 1.0 | 5.0 | 0.00 | 0.00 | 0.00 | 54 | 1012.2 |
| 20260504034239 | 52 | 218 | 3.0 | 5.0 | 0.00 | 0.00 | 0.00 | 54 | 1012.3 |
| 20260504033733 | 52 | 181 | 2.0 | 5.0 | 0.00 | 0.00 | 0.00 | 53 | 1012.2 |
| 20260504033221 | 52 | 221 | 2.0 | 5.0 | 0.00 | 0.00 | 0.00 | 53 | 1012.2 |
| 20260504032736 | 52 | 160 | 0.0 | 5.0 | 0.00 | 0.00 | 0.00 | 53 | 1012.2 |
| 20260504032244 | 52 | 160 | 1.0 | 5.0 | 0.00 | 0.00 | 0.00 | 52 | 1012.1 |
| 20260504031733 | 52 | 246 | 0.0 | 5.0 | 0.00 | 0.00 | 0.00 | 52 | 1012.2 |
| 20260504031254 | 52 | 227 | 0.0 | 6.0 | 0.00 | 0.00 | 0.00 | 52 | 1012.1 |
| 20260504030720 | 52 | 195 | 1.0 | 6.0 | 0.00 | 0.00 | 0.00 | 51 | 1012.1 |
| 20260504030236 | 52 | 203 | 1.0 | 10.0 | 0.00 | 0.00 | 0.00 | 52 | 1012.1 |
| 20260504025751 | 52 | 200 | 6.0 | 10.0 | 0.00 | 0.00 | 0.00 | 52 | 1012.1 |
| 20260504025244 | 52 | 197 | 2.0 | 5.0 | 0.00 | 0.00 | 0.00 | 51 | 1012.2 |
| 20260504024735 | 52 | 214 | 3.0 | 6.0 | 0.00 | 0.00 | 0.00 | 52 | 1012.0 |
| 20260504024223 | 52 | 213 | 0.0 | 6.0 | 0.00 | 0.00 | 0.00 | 52 | 1012.1 |
| 20260504023720 | 52 | 194 | 0.0 | 5.0 | 0.00 | 0.00 | 0.00 | 52 | 1012.1 |
| 20260504023304 | 52 | 209 | 2.0 | 5.0 | 0.00 | 0.00 | 0.00 | 53 | 1012.1 |
| 20260504022734 | 52 | 189 | 2.0 | 4.0 | 0.00 | 0.00 | 0.00 | 53 | 1012.2 |
| 20260504022224 | 52 | 189 | 0.0 | 4.0 | 0.00 | 0.00 | 0.00 | 52 | 1012.1 |
| 20260504021754 | 52 | 189 | 0.0 | 4.0 | 0.00 | 0.00 | 0.00 | 52 | 1012.1 |
| 20260504021223 | 52 | 222 | 0.0 | 5.0 | 0.00 | 0.00 | 0.00 | 52 | 1012.0 |
| 20260504020739 | 52 | 185 | 1.0 | 5.0 | 0.00 | 0.00 | 0.00 | 51 | 1011.9 |
| 20260504020229 | 53 | 185 | 0.0 | 2.0 | 0.00 | 0.00 | 0.00 | 50 | 1011.9 |
| 20260504015742 | 53 | 185 | 0.0 | 2.0 | 0.00 | 0.00 | 0.00 | 50 | 1012.0 |
| 20260504015250 | 53 | 185 | 1.0 | 5.0 | 0.00 | 0.00 | 0.00 | 50 | 1011.9 |
| 20260504014804 | 53 | 185 | 2.0 | 5.0 | 0.00 | 0.00 | 0.00 | 49 | 1011.9 |
| 20260504014235 | 53 | 185 | 3.0 | 4.0 | 0.00 | 0.00 | 0.00 | 48 | 1011.9 |
| 20260504013744 | 54 | 196 | 0.0 | 2.0 | 0.00 | 0.00 | 0.00 | 48 | 1011.8 |
| 20260504013240 | 54 | 196 | 0.0 | 3.0 | 0.00 | 0.00 | 0.00 | 47 | 1011.8 |
| 20260504012735 | 54 | 187 | 0.0 | 3.0 | 0.00 | 0.00 | 0.00 | 47 | 1011.8 |
| 20260504012225 | 55 | 187 | 0.0 | 1.0 | 0.00 | 0.00 | 0.00 | 46 | 1011.7 |
| 20260504011739 | 55 | 187 | 0.0 | 1.0 | 0.00 | 0.00 | 0.00 | 45 | 1011.6 |
| 20260504011235 | 55 | 187 | 0.0 | 2.0 | 0.00 | 0.00 | 0.00 | 46 | 1011.6 |
| 20260504010727 | 56 | 187 | 1.0 | 2.0 | 0.00 | 0.00 | 0.00 | 44 | 1011.5 |
| 20260504010222 | 56 | 219 | 0.0 | 2.0 | 0.00 | 0.00 | 0.00 | 43 | 1011.4 |
| 20260504005737 | 56 | 219 | 0.0 | 4.0 | 0.00 | 0.00 | 0.00 | 43 | 1011.3 |
| 20260504005225 | 57 | 219 | 0.0 | 4.0 | 0.00 | 0.00 | 0.00 | 43 | 1011.3 |
| 20260504004740 | 57 | 197 | 0.0 | 1.0 | 0.00 | 0.00 | 0.00 | 42 | 1011.2 |
| 20260504004227 | 57 | 197 | 0.0 | 6.0 | 0.00 | 0.00 | 0.00 | 41 | 1011.1 |
| 20260504003741 | 57 | 197 | 1.0 | 6.0 | 0.00 | 0.00 | 0.00 | 41 | 1011.1 |
| 20260504003233 | 58 | 239 | 1.0 | 5.0 | 0.00 | 0.00 | 0.00 | 40 | 1011.1 |
| 20260504002742 | 58 | 254 | 1.0 | 9.0 | 0.00 | 0.00 | 0.00 | 40 | 1011.0 |
| 20260504002234 | 58 | 231 | 4.0 | 9.0 | 0.00 | 0.00 | 0.00 | 39 | 1011.0 |
| 20260504001724 | 58 | 270 | 2.0 | 6.0 | 0.00 | 0.00 | 0.00 | 39 | 1010.8 |
| 20260504001258 | 58 | 208 | 1.0 | 9.0 | 0.00 | 0.00 | 0.00 | 40 | 1010.8 |
| 20260504000746 | 59 | 252 | 2.0 | 9.0 | 0.00 | 0.00 | 0.00 | 38 | 1010.7 |
| 20260504000241 | 59 | 257 | 3.0 | 7.0 | 0.00 | 0.00 | 0.00 | 37 | 1010.7 |
| 20260503235731 | 59 | 192 | 2.0 | 7.0 | 0.00 | 0.00 | 0.00 | 37 | 1010.7 |
| 20260503235245 | 59 | 270 | 2.0 | 8.0 | 0.00 | 0.00 | 0.00 | 37 | 1010.6 |
| 20260503234735 | 59 | 250 | 2.0 | 9.0 | 0.00 | 0.00 | 0.00 | 38 | 1010.6 |
| 20260503234244 | 59 | 281 | 3.0 | 9.0 | 0.00 | 0.00 | 0.00 | 36 | 1010.5 |
| 20260503233734 | 60 | 284 | 2.0 | 9.0 | 0.00 | 0.00 | 0.00 | 36 | 1010.5 |
| 20260503233253 | 60 | 259 | 7.0 | 10.0 | 0.00 | 0.00 | 0.00 | 35 | 1010.5 |
| 20260503232742 | 60 | 300 | 7.0 | 10.0 | 0.00 | 0.00 | 0.00 | 35 | 1010.4 |
| 20260503232233 | 61 | 212 | 6.0 | 12.0 | 0.00 | 0.00 | 0.00 | 35 | 1010.4 |
| 20260503231723 | 61 | 299 | 6.0 | 10.0 | 0.00 | 0.00 | 0.00 | 34 | 1010.4 |
| 20260503231240 | 61 | 276 | 4.0 | 11.0 | 0.00 | 0.00 | 0.00 | 34 | 1010.3 |
| 20260503230748 | 62 | 285 | 5.0 | 11.0 | 0.00 | 0.00 | 0.00 | 34 | 1010.3 |
| 20260503230220 | 62 | 263 | 1.0 | 9.0 | 0.00 | 0.00 | 0.00 | 35 | 1010.3 |
| 20260503225756 | 62 | 311 | 2.0 | 9.0 | 0.00 | 0.00 | 0.00 | 33 | 1010.2 |
| 20260503225222 | 62 | 275 | 4.0 | 12.0 | 0.00 | 0.00 | 0.00 | 34 | 1010.2 |
| 20260503224736 | 62 | 261 | 5.0 | 12.0 | 0.00 | 0.00 | 0.00 | 33 | 1010.2 |
| 20260503224228 | 62 | 314 | 5.0 | 16.0 | 0.00 | 0.00 | 0.00 | 32 | 1010.2 |
| 20260503223741 | 62 | 207 | 9.0 | 16.0 | 0.00 | 0.00 | 0.00 | 33 | 1010.1 |
| 20260503223232 | 62 | 267 | 6.0 | 12.0 | 0.00 | 0.00 | 0.00 | 33 | 1010.1 |
| 20260503222742 | 62 | 277 | 4.0 | 12.0 | 0.00 | 0.00 | 0.00 | 32 | 1010.0 |
| 20260503222233 | 62 | 275 | 4.0 | 11.0 | 0.00 | 0.00 | 0.00 | 34 | 1010.0 |
| 20260503221742 | 62 | 273 | 4.0 | 12.0 | 0.00 | 0.00 | 0.00 | 35 | 1010.1 |
| 20260503221235 | 62 | 271 | 7.0 | 13.0 | 0.00 | 0.00 | 0.00 | 32 | 1010.1 |
| 20260503220723 | 62 | 292 | 7.0 | 13.0 | 0.00 | 0.00 | 0.00 | 33 | 1010.2 |
| 20260503220238 | 62 | 30 | 2.0 | 14.0 | 0.00 | 0.00 | 0.00 | 33 | 1010.1 |
| 20260503215731 | 62 | 287 | 7.0 | 18.0 | 0.00 | 0.00 | 0.00 | 34 | 1010.2 |
| 20260503215222 | 62 | 273 | 7.0 | 18.0 | 0.00 | 0.00 | 0.00 | 34 | 1010.3 |
| 20260503214734 | 62 | 331 | 2.0 | 18.0 | 0.00 | 0.00 | 0.00 | 35 | 1010.2 |
| 20260503214222 | 62 | 246 | 9.0 | 18.0 | 0.00 | 0.00 | 0.00 | 33 | 1010.3 |
| 20260503213738 | 61 | 271 | 5.0 | 15.0 | 0.00 | 0.00 | 0.00 | 33 | 1010.1 |
| 20260503213231 | 62 | 302 | 7.0 | 19.0 | 0.00 | 0.00 | 0.00 | 33 | 1010.2 |
| 20260503212722 | 62 | 330 | 10.0 | 19.0 | 0.00 | 0.00 | 0.00 | 35 | 1010.1 |
| 20260503212239 | 62 | 190 | 8.0 | 14.0 | 0.00 | 0.00 | 0.00 | 35 | 1010.1 |
| 20260503211729 | 61 | 273 | 7.0 | 20.0 | 0.00 | 0.00 | 0.00 | 34 | 1010.1 |
| 20260503211241 | 62 | 273 | 7.0 | 20.0 | 0.00 | 0.00 | 0.00 | 35 | 1010.2 |
| 20260503210734 | 61 | 5 | 4.0 | 15.0 | 0.00 | 0.00 | 0.00 | 35 | 1010.2 |
| 20260503210244 | 61 | 281 | 10.0 | 18.0 | 0.00 | 0.00 | 0.00 | 34 | 1010.2 |
| 20260503205736 | 61 | 337 | 10.0 | 20.0 | 0.00 | 0.00 | 0.00 | 33 | 1010.3 |
| 20260503205223 | 61 | 242 | 9.0 | 20.0 | 0.00 | 0.00 | 0.00 | 34 | 1010.3 |
| 20260503204739 | 62 | 250 | 11.0 | 15.0 | 0.00 | 0.00 | 0.00 | 33 | 1010.3 |
| 20260503204227 | 61 | 301 | 6.0 | 15.0 | 0.00 | 0.00 | 0.00 | 34 | 1010.4 |
| 20260503203741 | 61 | 297 | 3.0 | 16.0 | 0.00 | 0.00 | 0.00 | 35 | 1010.3 |
| 20260503203229 | 61 | 259 | 8.0 | 16.0 | 0.00 | 0.00 | 0.00 | 34 | 1010.3 |
| 20260503202804 | 61 | 288 | 4.0 | 12.0 | 0.00 | 0.00 | 0.00 | 36 | 1010.3 |
| 20260503202253 | 61 | 299 | 6.0 | 12.0 | 0.00 | 0.00 | 0.00 | 36 | 1010.4 |
| 20260503201743 | 60 | 286 | 8.0 | 12.0 | 0.00 | 0.00 | 0.00 | 36 | 1010.3 |
| 20260503201235 | 59 | 291 | 5.0 | 10.0 | 0.00 | 0.00 | 0.00 | 36 | 1010.2 |
| 20260503200743 | 60 | 44 | 4.0 | 15.0 | 0.00 | 0.00 | 0.00 | 37 | 1010.3 |
| 20260503200236 | 60 | 194 | 8.0 | 16.0 | 0.00 | 0.00 | 0.00 | 35 | 1010.4 |
| 20260503195745 | 60 | 273 | 8.0 | 19.0 | 0.00 | 0.00 | 0.00 | 36 | 1010.4 |
| 20260503195240 | 60 | 299 | 6.0 | 19.0 | 0.00 | 0.00 | 0.00 | 35 | 1010.4 |
| 20260503194734 | 60 | 325 | 8.0 | 19.0 | 0.00 | 0.00 | 0.00 | 36 | 1010.5 |
| 20260503194223 | 61 | 296 | 10.0 | 15.0 | 0.00 | 0.00 | 0.00 | 36 | 1010.5 |
| 20260503193739 | 60 | 269 | 4.0 | 22.0 | 0.00 | 0.00 | 0.00 | 37 | 1010.5 |
| 20260503193231 | 60 | 301 | 7.0 | 22.0 | 0.00 | 0.00 | 0.00 | 35 | 1010.6 |
| 20260503192722 | 60 | 314 | 3.0 | 15.0 | 0.00 | 0.00 | 0.00 | 36 | 1010.6 |
| 20260503192240 | 60 | 288 | 9.0 | 15.0 | 0.00 | 0.00 | 0.00 | 38 | 1010.7 |
| 20260503191729 | 60 | 221 | 7.0 | 15.0 | 0.00 | 0.00 | 0.00 | 37 | 1010.7 |
| 20260503191244 | 60 | 286 | 5.0 | 15.0 | 0.00 | 0.00 | 0.00 | 38 | 1010.9 |
| 20260503190733 | 59 | 5 | 5.0 | 20.0 | 0.00 | 0.00 | 0.00 | 37 | 1010.8 |
| 20260503190221 | 59 | 304 | 7.0 | 20.0 | 0.00 | 0.00 | 0.00 | 38 | 1010.9 |